createdAt,value
2022-09-07T00:01:04.865Z,9.85
2022-09-07T00:03:32.148Z,8.75
2022-09-07T00:05:59.934Z,9.23
2022-09-07T00:08:28.041Z,9.70
2022-09-07T00:11:01.939Z,8.38
2022-09-07T00:13:33.759Z,9.50
2022-09-07T00:16:12.614Z,9.35
2022-09-07T00:18:45.223Z,16.52
2022-09-07T00:23:41.322Z,9.10
2022-09-07T00:26:17.596Z,9.15
2022-09-07T00:28:45.230Z,11.88
2022-09-07T00:31:24.624Z,11.32
2022-09-07T00:33:53.789Z,12.45
2022-09-07T00:36:22.070Z,10.80
2022-09-07T00:38:49.647Z,12.05
2022-09-07T00:41:18.320Z,20.40
2022-09-07T00:43:55.389Z,24.77
2022-09-07T00:46:32.310Z,20.55
2022-09-07T00:49:10.364Z,17.67
2022-09-07T00:51:50.945Z,14.38
2022-09-07T00:54:42.313Z,14.82
2022-09-07T00:57:09.876Z,17.15
2022-09-07T00:59:43.380Z,14.32
2022-09-07T01:02:12.311Z,13.10
2022-09-07T01:04:39.803Z,15.43
2022-09-07T01:07:07.060Z,14.52
2022-09-07T01:09:35.381Z,16.65
2022-09-07T01:12:03.491Z,13.77
2022-09-07T01:14:40.426Z,14.15
2022-09-07T01:17:16.630Z,18.73
2022-09-07T01:20:43.943Z,15.15
2022-09-07T01:23:50.330Z,18.00
2022-09-07T01:27:02.287Z,20.40
2022-09-07T01:29:52.606Z,18.55
2022-09-07T01:32:28.561Z,18.02
2022-09-07T01:34:55.662Z,16.50
2022-09-07T01:37:40.623Z,16.88
2022-09-07T01:41:05.792Z,22.17
2022-09-07T01:46:42.226Z,16.60
2022-09-07T01:49:21.343Z,16.08
2022-09-07T01:51:54.652Z,16.77
2022-09-07T01:54:33.888Z,19.02
2022-09-07T01:57:10.381Z,17.23
2022-09-07T01:59:44.643Z,21.70
2022-09-07T02:02:19.762Z,19.55
2022-09-07T02:05:07.478Z,18.23
2022-09-07T02:07:53.512Z,18.57
2022-09-07T02:10:28.877Z,19.83
2022-09-07T02:13:08.188Z,23.05
2022-09-07T02:16:03.354Z,20.67
2022-09-07T02:18:37.511Z,23.60
2022-09-07T02:21:07.852Z,22.08
2022-09-07T02:23:44.196Z,18.52
2022-09-07T02:26:18.299Z,17.85
2022-09-07T02:28:45.716Z,19.52
2022-09-07T02:31:13.567Z,21.50
2022-09-07T02:33:41.949Z,22.67
2022-09-07T02:36:09.978Z,25.42
2022-09-07T02:38:37.157Z,21.85
2022-09-07T02:41:05.086Z,21.70
2022-09-07T02:43:32.736Z,22.58
2022-09-07T02:46:46.279Z,23.83
2022-09-07T02:50:14.832Z,22.20
2022-09-07T02:53:38.701Z,21.02
2022-09-07T02:56:34.459Z,21.80
2022-09-07T03:02:25.737Z,21.70
2022-09-07T03:05:32.342Z,22.23
2022-09-07T03:08:05.549Z,21.80
2022-09-07T03:10:33.298Z,22.38
2022-09-07T03:13:00.233Z,29.52
2022-09-07T03:15:28.297Z,23.52
2022-09-07T03:17:55.400Z,22.50
2022-09-07T03:20:23.422Z,22.50
2022-09-07T03:22:52.249Z,23.42
2022-09-07T03:25:19.891Z,24.95
2022-09-07T03:27:46.977Z,26.65
2022-09-07T03:30:14.571Z,23.48
2022-09-07T03:32:42.147Z,24.58
2022-09-07T03:35:10.220Z,29.67
2022-09-07T03:37:38.457Z,28.48
2022-09-07T03:40:09.962Z,25.58
2022-09-07T03:42:37.523Z,21.95
2022-09-07T03:45:07.163Z,25.02
2022-09-07T03:47:37.833Z,23.58
2022-09-07T03:50:06.125Z,23.40
2022-09-07T03:52:35.221Z,23.52
2022-09-07T03:55:02.295Z,27.75
2022-09-07T03:57:29.277Z,26.23
2022-09-07T03:59:56.246Z,25.25
2022-09-07T04:02:23.240Z,25.52
2022-09-07T04:04:50.283Z,26.58
2022-09-07T04:07:17.341Z,30.17
2022-09-07T04:09:44.362Z,27.25
2022-09-07T04:12:11.343Z,26.00
2022-09-07T04:14:38.263Z,25.73
2022-09-07T04:17:05.576Z,28.80
2022-09-07T04:19:32.522Z,32.15
2022-09-07T04:21:59.718Z,28.50
2022-09-07T04:24:26.801Z,31.27
2022-09-07T04:26:53.691Z,29.52
2022-09-07T04:29:20.656Z,28.63
2022-09-07T04:31:47.786Z,31.42
2022-09-07T04:34:14.978Z,29.13
2022-09-07T04:36:42.107Z,31.08
2022-09-07T04:39:11.397Z,29.05
2022-09-07T04:41:38.325Z,28.13
2022-09-07T04:44:05.404Z,27.55
2022-09-07T04:46:37.521Z,29.73
2022-09-07T04:49:08.526Z,28.80
2022-09-07T04:51:36.833Z,28.88
2022-09-07T04:54:04.545Z,28.85
2022-09-07T04:56:33.677Z,34.22
2022-09-07T04:59:03.084Z,31.52
2022-09-07T05:01:31.401Z,29.20
2022-09-07T05:04:03.532Z,32.60
2022-09-07T05:06:31.107Z,31.52
2022-09-07T05:08:59.180Z,31.00
2022-09-07T05:11:29.403Z,27.00
2022-09-07T05:13:59.105Z,25.38
2022-09-07T05:16:27.509Z,25.80
2022-09-07T05:18:58.175Z,29.73
2022-09-07T05:21:28.646Z,25.02
2022-09-07T05:23:58.089Z,24.40
2022-09-07T05:26:29.347Z,25.52
2022-09-07T05:31:43.703Z,23.15
2022-09-07T05:36:58.059Z,24.88
2022-09-07T05:39:25.393Z,21.98
2022-09-07T05:41:52.586Z,23.13
2022-09-07T05:47:07.513Z,19.63
2022-09-07T05:49:34.673Z,21.98
2022-09-07T05:52:01.732Z,20.08
2022-09-07T05:54:28.851Z,22.75
2022-09-07T05:56:55.896Z,20.02
2022-09-07T05:59:22.954Z,21.85
2022-09-07T06:01:50.719Z,20.27
2022-09-07T06:04:18.208Z,20.83
2022-09-07T06:06:59.160Z,22.75
2022-09-07T06:09:31.830Z,19.10
2022-09-07T06:11:58.934Z,16.60
2022-09-07T06:14:25.907Z,19.73
2022-09-07T06:16:53.751Z,14.63
2022-09-07T06:19:21.385Z,16.38
2022-09-07T06:21:48.797Z,12.82
2022-09-07T06:24:15.938Z,10.02
2022-09-07T06:26:43.118Z,9.38
2022-09-07T06:29:10.560Z,14.38
2022-09-07T06:34:26.418Z,6.00
2022-09-07T06:36:53.359Z,12.68
2022-09-07T06:39:20.350Z,5.05
2022-09-07T06:42:02.584Z,7.65
2022-09-07T06:44:31.640Z,3.38
2022-09-07T06:49:26.983Z,7.53
2022-09-07T06:51:53.963Z,6.40
2022-09-07T06:57:10.863Z,4.05
2022-09-07T06:59:38.598Z,6.28
2022-09-07T07:02:06.865Z,2.45
2022-09-07T07:04:39.501Z,10.75
2022-09-07T07:07:13.707Z,3.78
2022-09-07T07:09:41.946Z,4.07
2022-09-07T07:12:10.710Z,9.80
2022-09-07T07:14:40.978Z,10.88
2022-09-07T07:17:11.194Z,6.45
2022-09-07T07:19:38.625Z,9.05
2022-09-07T07:24:53.202Z,6.07
2022-09-07T07:27:22.303Z,2.50
2022-09-07T07:29:49.984Z,4.75
2022-09-07T07:32:17.426Z,3.25
2022-09-07T07:34:44.831Z,6.13
2022-09-07T07:37:11.854Z,2.78
2022-09-07T07:42:26.342Z,3.20
2022-09-07T07:47:40.273Z,4.35
2022-09-07T07:55:43.817Z,5.47
2022-09-07T07:58:11.011Z,4.72
2022-09-07T08:00:53.788Z,5.60
2022-09-07T08:03:23.171Z,4.90
2022-09-07T08:05:50.406Z,4.40
2022-09-07T08:08:17.419Z,5.18
2022-09-07T08:10:46.037Z,2.85
2022-09-07T08:13:13.290Z,4.53
2022-09-07T08:15:46.364Z,4.43
2022-09-07T08:18:16.689Z,3.60
2022-09-07T08:20:43.924Z,7.70
2022-09-07T08:23:11.615Z,4.60
2022-09-07T08:25:38.707Z,1.67
2022-09-07T08:28:06.572Z,2.25
2022-09-07T08:30:33.535Z,3.50
2022-09-07T08:33:00.525Z,9.93
2022-09-07T08:35:27.619Z,1.73
2022-09-07T08:37:54.648Z,4.10
2022-09-07T08:40:25.563Z,3.92
2022-09-07T08:45:41.800Z,5.32
2022-09-07T08:48:15.171Z,3.58
2022-09-07T08:50:53.954Z,7.03
2022-09-07T08:53:23.080Z,9.68
2022-09-07T08:55:57.062Z,4.20
2022-09-07T08:58:49.814Z,5.75
2022-09-07T09:01:41.595Z,11.75
2022-09-07T09:04:25.658Z,4.65
2022-09-07T09:07:29.933Z,5.22
2022-09-07T09:10:30.532Z,5.88
2022-09-07T09:13:09.681Z,13.02
2022-09-07T09:15:53.261Z,10.20
2022-09-07T09:18:42.482Z,6.75
2022-09-07T09:21:18.816Z,7.63
2022-09-07T09:23:50.090Z,5.45
2022-09-07T09:26:26.871Z,6.05
2022-09-07T09:28:55.160Z,5.05
2022-09-07T09:31:26.806Z,7.47
2022-09-07T09:34:09.660Z,8.65
2022-09-07T09:36:44.418Z,4.65
2022-09-07T09:39:38.044Z,8.52
2022-09-07T09:42:11.460Z,5.47
2022-09-07T09:44:39.484Z,4.20
2022-09-07T09:49:54.446Z,5.93
2022-09-07T09:52:29.708Z,10.05
2022-09-07T09:55:17.236Z,4.88
2022-09-07T10:01:21.223Z,7.90
2022-09-07T10:06:18.982Z,9.00
2022-09-07T10:09:04.197Z,4.90
2022-09-07T10:14:45.458Z,6.20
2022-09-07T10:17:35.864Z,8.35
2022-09-07T10:20:37.540Z,5.05
2022-09-07T10:23:06.816Z,4.68
2022-09-07T10:25:44.232Z,3.60
2022-09-07T10:28:14.390Z,4.28
2022-09-07T10:31:13.927Z,6.70
2022-09-07T10:34:27.477Z,5.68
2022-09-07T10:37:05.849Z,6.60
2022-09-07T10:39:43.633Z,9.07
2022-09-07T10:42:29.234Z,11.15
2022-09-07T10:45:17.178Z,10.93
2022-09-07T10:47:57.536Z,8.57
2022-09-07T10:50:39.665Z,10.80
2022-09-07T10:53:40.116Z,12.18
2022-09-07T10:56:26.209Z,11.48
2022-09-07T11:03:28.132Z,10.32
2022-09-07T11:06:16.599Z,13.10
2022-09-07T11:09:36.756Z,13.65
2022-09-07T11:12:09.768Z,12.88
2022-09-07T11:14:45.352Z,13.20
2022-09-07T11:17:25.612Z,16.52
2022-09-07T11:20:12.120Z,12.77
2022-09-07T11:22:43.398Z,15.20
2022-09-07T11:25:32.645Z,17.25
2022-09-07T11:28:12.635Z,16.33
2022-09-07T11:31:00.322Z,16.52
2022-09-07T11:33:42.149Z,17.35
2022-09-07T11:36:15.942Z,20.52
2022-09-07T11:38:54.430Z,20.50
2022-09-07T11:41:38.607Z,17.80
2022-09-07T11:44:43.699Z,17.00
2022-09-07T11:47:29.615Z,17.48
2022-09-07T11:49:59.340Z,22.15
2022-09-07T11:52:40.136Z,19.63
2022-09-07T11:55:25.366Z,19.90
2022-09-07T11:58:44.468Z,20.55
2022-09-07T12:01:45.223Z,15.55
2022-09-07T12:04:46.861Z,17.35
2022-09-07T12:07:33.609Z,17.00
2022-09-07T12:10:42.128Z,19.38
2022-09-07T12:13:46.316Z,19.50
2022-09-07T12:16:34.834Z,19.73
2022-09-07T12:19:02.170Z,19.98
2022-09-07T12:22:03.589Z,20.48
2022-09-07T12:24:45.978Z,18.48
2022-09-07T12:27:33.678Z,21.13
2022-09-07T12:30:03.713Z,19.35
2022-09-07T12:32:58.229Z,24.88
2022-09-07T12:35:28.535Z,18.83
2022-09-07T12:41:41.061Z,16.10
2022-09-07T12:44:17.503Z,13.38
2022-09-07T12:46:48.467Z,17.63
2022-09-07T12:49:52.778Z,19.20
2022-09-07T12:58:34.846Z,8.82
2022-09-07T13:01:15.504Z,13.60
2022-09-07T13:03:52.413Z,17.08
2022-09-07T13:07:02.428Z,16.48
2022-09-07T13:09:38.157Z,21.45
2022-09-07T13:16:06.435Z,18.67
2022-09-07T13:18:37.703Z,20.13
2022-09-07T13:21:07.893Z,13.80
2022-09-07T13:23:51.375Z,17.25
2022-09-07T13:26:55.161Z,16.52
2022-09-07T13:29:46.425Z,9.38
2022-09-07T13:35:24.150Z,9.05
2022-09-07T13:38:02.362Z,5.53
2022-09-07T13:40:34.345Z,8.98
2022-09-07T13:43:04.659Z,12.75
2022-09-07T13:45:55.694Z,11.70
2022-09-07T13:48:58.346Z,11.05
2022-09-07T13:51:38.334Z,9.85
2022-09-07T13:54:14.130Z,12.48
2022-09-07T13:56:55.729Z,7.68
2022-09-07T13:59:27.685Z,6.85
2022-09-07T14:01:57.221Z,7.60
2022-09-07T14:04:35.637Z,6.18
2022-09-07T14:07:13.914Z,4.20
2022-09-07T14:09:41.313Z,7.13
2022-09-07T14:12:20.897Z,6.15
2022-09-07T14:15:25.599Z,5.45
2022-09-07T14:18:03.979Z,5.10
2022-09-07T14:20:32.580Z,9.38
2022-09-07T14:23:00.286Z,11.85
2022-09-07T14:25:27.734Z,11.02
2022-09-07T14:27:56.323Z,6.75
2022-09-07T14:30:32.071Z,7.63
2022-09-07T14:33:17.333Z,8.50
2022-09-07T14:35:44.438Z,6.03
2022-09-07T14:41:21.427Z,7.45
2022-09-07T14:43:55.251Z,5.93
2022-09-07T14:46:30.130Z,11.95
2022-09-07T14:49:04.291Z,11.23
2022-09-07T14:51:36.436Z,10.70
2022-09-07T14:54:08.050Z,10.00
2022-09-07T14:56:40.908Z,8.43
2022-09-07T14:59:43.524Z,9.27
2022-09-07T15:02:22.136Z,9.88
2022-09-07T15:05:24.009Z,9.40
2022-09-07T15:08:00.911Z,7.57
2022-09-07T15:13:36.946Z,7.03
2022-09-07T15:16:07.423Z,10.98
2022-09-07T15:19:02.474Z,11.18
2022-09-07T15:21:36.625Z,7.40
2022-09-07T15:24:04.057Z,10.45
2022-09-07T15:29:28.575Z,6.60
2022-09-07T15:32:03.496Z,9.60
2022-09-07T15:34:32.476Z,7.55
2022-09-07T15:37:00.877Z,13.85
2022-09-07T15:39:29.884Z,9.80
2022-09-07T15:41:59.042Z,9.10
2022-09-07T15:44:28.611Z,8.40
2022-09-07T15:49:49.490Z,7.10
2022-09-07T15:52:18.243Z,5.85
2022-09-07T15:54:45.363Z,6.90
2022-09-07T15:59:59.525Z,5.43
2022-09-07T16:05:13.796Z,5.70
2022-09-07T16:10:31.610Z,5.82
2022-09-07T16:13:01.836Z,7.07
2022-09-07T16:15:31.496Z,7.95
2022-09-07T16:17:59.119Z,5.88
2022-09-07T16:20:32.038Z,4.28
2022-09-07T16:23:16.256Z,12.07
2022-09-07T16:25:58.413Z,6.88
2022-09-07T16:28:26.306Z,7.32
2022-09-07T16:30:54.236Z,2.47
2022-09-07T16:33:21.401Z,5.55
2022-09-07T16:36:04.301Z,4.85
2022-09-07T16:38:47.580Z,4.93
2022-09-07T16:41:26.662Z,8.70
2022-09-07T16:43:54.783Z,9.38
2022-09-07T16:46:26.304Z,4.57
2022-09-07T16:48:54.261Z,5.72
2022-09-07T16:51:22.954Z,7.68
2022-09-07T16:53:53.292Z,4.90
2022-09-07T16:56:24.391Z,7.35
2022-09-07T16:58:56.008Z,5.75
2022-09-07T17:01:27.957Z,4.95
2022-09-07T17:03:56.598Z,6.45
2022-09-07T17:06:27.294Z,4.47
2022-09-07T17:08:55.172Z,6.65
2022-09-07T17:11:26.479Z,7.18
2022-09-07T17:13:54.048Z,7.90
2022-09-07T17:16:28.224Z,4.72
2022-09-07T17:21:43.311Z,8.27
2022-09-07T17:24:11.885Z,7.70
2022-09-07T17:26:42.243Z,4.63
2022-09-07T17:29:09.746Z,10.20
2022-09-07T17:34:25.551Z,7.05
2022-09-07T17:36:52.757Z,8.15
2022-09-07T17:39:19.983Z,8.75
2022-09-07T17:41:49.314Z,8.95
2022-09-07T17:44:16.335Z,6.35
2022-09-07T17:46:43.535Z,9.60
2022-09-07T17:49:16.632Z,11.20
2022-09-07T17:54:17.322Z,5.25
2022-09-07T17:56:45.272Z,6.03
2022-09-07T18:01:59.907Z,5.78
2022-09-07T18:04:28.205Z,8.52
2022-09-07T18:06:55.575Z,2.88
2022-09-07T18:09:22.815Z,7.32
2022-09-07T18:11:50.495Z,5.75
2022-09-07T18:14:19.053Z,9.98
2022-09-07T18:16:49.302Z,6.75
2022-09-07T18:19:18.300Z,5.18
2022-09-07T18:21:45.716Z,10.00
2022-09-07T18:24:17.837Z,4.97
2022-09-07T18:26:50.891Z,9.98
2022-09-07T18:29:29.329Z,9.95
2022-09-07T18:31:58.937Z,5.03
2022-09-07T18:34:26.263Z,10.55
2022-09-07T18:36:53.849Z,8.30
2022-09-07T18:39:23.073Z,5.80
2022-09-07T18:41:50.314Z,8.95
2022-09-07T18:47:06.319Z,10.25
2022-09-07T18:49:33.223Z,13.13
2022-09-07T18:54:47.310Z,11.80
2022-09-07T18:57:15.497Z,10.05
2022-09-07T18:59:42.559Z,11.57
2022-09-07T19:02:10.801Z,8.80
2022-09-07T19:07:29.542Z,12.43
2022-09-07T19:09:57.834Z,10.55
2022-09-07T19:12:24.927Z,11.95
2022-09-07T19:14:51.859Z,10.40
2022-09-07T19:17:19.387Z,11.10
2022-09-07T19:19:46.379Z,7.30
2022-09-07T19:22:13.294Z,7.43
2022-09-07T19:24:40.167Z,8.52
2022-09-07T19:27:07.585Z,12.73
2022-09-07T19:29:34.689Z,9.85
2022-09-07T19:32:05.416Z,11.30
2022-09-07T19:34:42.158Z,15.25
2022-09-07T19:37:11.712Z,10.13
2022-09-07T19:39:38.891Z,11.70
2022-09-07T19:42:07.798Z,10.60
2022-09-07T19:44:35.111Z,8.07
2022-09-07T19:47:02.150Z,11.75
2022-09-07T19:49:30.259Z,8.52
2022-09-07T19:51:57.210Z,7.75
2022-09-07T19:54:24.466Z,6.00
2022-09-07T19:56:51.404Z,9.05
2022-09-07T19:59:19.587Z,7.78
2022-09-07T20:01:48.470Z,9.27
2022-09-07T20:04:20.622Z,7.97
2022-09-07T20:06:50.242Z,8.77
2022-09-07T20:09:19.956Z,13.90
2022-09-07T20:11:48.182Z,7.18
2022-09-07T20:14:16.728Z,10.80
2022-09-07T20:16:43.976Z,8.88
2022-09-07T20:19:14.621Z,10.57
2022-09-07T20:21:43.057Z,10.20
2022-09-07T20:24:14.443Z,7.68
2022-09-07T20:26:41.736Z,11.02
2022-09-07T20:29:26.902Z,10.55
2022-09-07T20:31:57.680Z,8.38
2022-09-07T20:34:25.880Z,7.93
2022-09-07T20:36:53.199Z,12.13
2022-09-07T20:39:21.349Z,13.75
2022-09-07T20:41:48.492Z,12.15
2022-09-07T20:44:15.887Z,12.88
2022-09-07T20:46:43.642Z,11.38
2022-09-07T20:49:11.163Z,12.38
2022-09-07T20:51:38.851Z,12.50
2022-09-07T20:54:07.079Z,19.63
2022-09-07T20:56:33.994Z,11.73
2022-09-07T20:59:03.623Z,17.20
2022-09-07T21:01:35.872Z,20.27
2022-09-07T21:04:04.163Z,16.92
2022-09-07T21:06:32.018Z,12.38
2022-09-07T21:09:02.859Z,10.25
2022-09-07T21:11:35.425Z,14.40
2022-09-07T21:14:10.290Z,15.40
2022-09-07T21:16:38.012Z,13.63
2022-09-07T21:19:10.938Z,11.60
2022-09-07T21:21:41.800Z,9.95
2022-09-07T21:24:19.692Z,7.38
2022-09-07T21:26:49.027Z,9.48
2022-09-07T21:29:22.956Z,7.15
2022-09-07T21:31:53.114Z,11.07
2022-09-07T21:34:21.363Z,7.00
2022-09-07T21:36:48.286Z,8.90
2022-09-07T21:39:16.335Z,6.28
2022-09-07T21:41:45.208Z,5.60
2022-09-07T21:44:15.736Z,8.57
2022-09-07T21:46:44.046Z,6.90
2022-09-07T21:49:11.784Z,12.35
2022-09-07T21:51:38.875Z,13.50
2022-09-07T21:54:06.125Z,11.85
2022-09-07T21:56:33.217Z,8.82
2022-09-07T21:59:01.997Z,9.15
2022-09-07T22:01:30.772Z,12.23
2022-09-07T22:04:04.042Z,9.75
2022-09-07T22:06:32.421Z,11.40
2022-09-07T22:09:01.983Z,12.18
2022-09-07T22:11:29.822Z,16.05
2022-09-07T22:14:00.482Z,16.08
2022-09-07T22:16:27.720Z,12.30
2022-09-07T22:18:55.069Z,15.57
2022-09-07T22:21:27.890Z,17.90
2022-09-07T22:23:58.352Z,19.92
2022-09-07T22:26:28.636Z,13.10
2022-09-07T22:28:56.147Z,11.07
2022-09-07T22:31:33.649Z,20.15
2022-09-07T22:34:04.721Z,9.85
2022-09-07T22:36:44.260Z,9.40
2022-09-07T22:39:15.898Z,11.95
2022-09-07T22:41:44.079Z,15.13
2022-09-07T22:44:14.928Z,13.30
2022-09-07T22:46:43.719Z,13.25
2022-09-07T22:49:16.209Z,17.27
2022-09-07T22:51:43.907Z,16.13
2022-09-07T22:54:11.209Z,14.05
2022-09-07T22:56:39.652Z,24.67
2022-09-07T22:59:09.029Z,12.98
2022-09-07T23:01:37.246Z,8.48
2022-09-07T23:04:06.167Z,10.48
2022-09-07T23:06:42.018Z,13.23
2022-09-07T23:09:16.556Z,10.30
2022-09-07T23:11:45.896Z,9.98
2022-09-07T23:14:22.052Z,9.35
2022-09-07T23:16:49.666Z,8.68
2022-09-07T23:19:18.565Z,11.23
2022-09-07T23:21:46.142Z,10.10
2022-09-07T23:24:17.272Z,10.75
2022-09-07T23:26:44.719Z,12.48
2022-09-07T23:29:13.783Z,11.82
2022-09-07T23:31:42.182Z,12.05
2022-09-07T23:34:09.745Z,13.10
2022-09-07T23:36:37.408Z,13.20
2022-09-07T23:39:04.899Z,11.98
2022-09-07T23:41:31.955Z,13.43
2022-09-07T23:43:59.053Z,13.13
2022-09-07T23:46:26.332Z,14.00
2022-09-07T23:48:53.469Z,12.40
2022-09-07T23:51:24.202Z,12.27
2022-09-07T23:53:52.945Z,14.77
2022-09-07T23:56:21.241Z,12.10
2022-09-07T23:58:48.139Z,12.93
